createdAt,value
2023-03-01T00:01:27.279Z,71.40
2023-03-01T00:03:56.828Z,71.40
2023-03-01T00:06:25.927Z,71.80
2023-03-01T00:08:54.075Z,71.90
2023-03-01T00:11:26.748Z,71.70
2023-03-01T00:13:59.455Z,71.90
2023-03-01T00:16:31.529Z,71.80
2023-03-01T00:18:59.758Z,71.90
2023-03-01T00:21:28.382Z,72.00
2023-03-01T00:23:59.246Z,72.30
2023-03-01T00:26:30.923Z,72.20
2023-03-01T00:29:00.413Z,72.30
2023-03-01T00:31:31.270Z,72.20
2023-03-01T00:34:01.359Z,72.20
2023-03-01T00:36:31.415Z,72.10
2023-03-01T00:38:59.554Z,72.10
2023-03-01T00:41:30.907Z,72.00
2023-03-01T00:43:59.309Z,72.00
2023-03-01T00:46:31.351Z,71.90
2023-03-01T00:49:02.895Z,72.00
2023-03-01T00:51:31.795Z,72.10
2023-03-01T00:54:01.283Z,72.10
2023-03-01T00:56:30.869Z,72.10
2023-03-01T00:58:59.166Z,72.20
2023-03-01T01:01:43.219Z,72.50
2023-03-01T01:04:15.284Z,72.60
2023-03-01T01:06:45.411Z,72.60
2023-03-01T01:09:18.177Z,72.50
2023-03-01T01:11:47.394Z,72.60
2023-03-01T01:14:16.007Z,72.60
2023-03-01T01:16:44.317Z,72.60
2023-03-01T01:19:17.286Z,72.70
2023-03-01T01:21:45.857Z,72.50
2023-03-01T01:24:36.848Z,72.50
2023-03-01T01:27:03.196Z,72.40
2023-03-01T01:29:31.217Z,72.40
2023-03-01T01:31:59.166Z,72.40
2023-03-01T01:34:28.763Z,72.40
2023-03-01T01:36:56.802Z,72.50
2023-03-01T01:39:24.995Z,72.40
2023-03-01T01:41:53.018Z,72.50
2023-03-01T01:44:24.276Z,72.70
2023-03-01T01:46:56.006Z,72.60
2023-03-01T01:49:33.494Z,72.50
2023-03-01T01:52:11.029Z,72.40
2023-03-01T01:54:43.982Z,72.50
2023-03-01T01:57:16.603Z,72.50
2023-03-01T01:59:48.195Z,72.70
2023-03-01T02:02:16.650Z,72.90
2023-03-01T02:04:46.193Z,73.00
2023-03-01T02:07:18.290Z,73.30
2023-03-01T02:09:49.568Z,73.40
2023-03-01T02:12:20.375Z,73.50
2023-03-01T02:14:48.574Z,73.50
2023-03-01T02:17:19.223Z,73.50
2023-03-01T02:19:59.698Z,73.50
2023-03-01T02:22:31.066Z,73.40
2023-03-01T02:25:14.293Z,73.30
2023-03-01T02:27:53.476Z,73.40
2023-03-01T02:30:24.199Z,73.50
2023-03-01T02:32:53.018Z,73.50
2023-03-01T02:35:23.152Z,73.40
2023-03-01T02:37:54.223Z,73.50
2023-03-01T02:40:22.696Z,73.30
2023-03-01T02:42:58.077Z,73.30
2023-03-01T02:45:29.317Z,73.40
2023-03-01T02:47:58.209Z,73.50
2023-03-01T02:50:53.066Z,73.50
2023-03-01T02:53:31.711Z,73.50
2023-03-01T02:56:02.224Z,73.60
2023-03-01T02:58:30.857Z,73.80
2023-03-01T03:01:01.946Z,73.90
2023-03-01T03:03:30.213Z,73.90
2023-03-01T03:05:58.310Z,74.10
2023-03-01T03:08:26.397Z,74.10
2023-03-01T03:10:55.016Z,74.00
2023-03-01T03:13:23.848Z,74.00
2023-03-01T03:15:52.253Z,73.90
2023-03-01T03:18:21.638Z,73.90
2023-03-01T03:20:53.751Z,73.80
2023-03-01T03:23:22.527Z,73.80
2023-03-01T03:25:51.554Z,73.90
2023-03-01T03:28:20.362Z,74.20
2023-03-01T03:30:48.705Z,74.30
2023-03-01T03:33:16.699Z,74.40
2023-03-01T03:35:48.327Z,74.30
2023-03-01T03:38:18.446Z,74.20
2023-03-01T03:40:48.727Z,74.40
2023-03-01T03:43:18.838Z,74.40
2023-03-01T03:45:48.183Z,74.40
2023-03-01T03:48:19.885Z,74.20
2023-03-01T03:50:52.507Z,74.10
2023-03-01T03:53:21.887Z,74.20
2023-03-01T03:55:50.811Z,74.40
2023-03-01T03:58:20.678Z,74.40
2023-03-01T04:00:50.737Z,74.50
2023-03-01T04:03:20.765Z,74.60
2023-03-01T04:05:51.544Z,74.60
2023-03-01T04:08:21.686Z,74.50
2023-03-01T04:10:52.507Z,74.60
2023-03-01T04:13:23.193Z,74.50
2023-03-01T04:15:51.915Z,74.50
2023-03-01T04:18:21.703Z,74.50
2023-03-01T04:20:52.899Z,74.40
2023-03-01T04:23:22.294Z,74.30
2023-03-01T04:25:54.741Z,74.40
2023-03-01T04:28:25.368Z,74.40
2023-03-01T04:30:53.711Z,74.40
2023-03-01T04:33:21.827Z,74.50
2023-03-01T04:35:51.630Z,74.50
2023-03-01T04:38:19.820Z,74.50
2023-03-01T04:40:47.896Z,74.60
2023-03-01T04:43:16.441Z,74.50
2023-03-01T04:45:44.625Z,74.50
2023-03-01T04:48:12.593Z,74.40
2023-03-01T04:50:40.521Z,74.30
2023-03-01T04:53:09.847Z,74.40
2023-03-01T04:55:37.784Z,74.50
2023-03-01T04:58:05.767Z,74.50
2023-03-01T05:00:33.796Z,74.30
2023-03-01T05:03:02.944Z,74.30
2023-03-01T05:05:35.731Z,74.30
2023-03-01T05:08:09.652Z,74.20
2023-03-01T05:10:39.777Z,74.30
2023-03-01T05:13:07.790Z,74.40
2023-03-01T05:15:37.427Z,74.50
2023-03-01T05:18:08.109Z,74.50
2023-03-01T05:20:37.220Z,74.50
2023-03-01T05:23:06.204Z,74.40
2023-03-01T05:25:35.569Z,74.70
2023-03-01T05:28:05.638Z,74.80
2023-03-01T05:30:34.100Z,74.80
2023-03-01T05:33:03.122Z,74.60
2023-03-01T05:35:35.707Z,74.50
2023-03-01T05:38:03.835Z,74.50
2023-03-01T05:40:31.974Z,74.50
2023-03-01T05:42:59.988Z,74.40
2023-03-01T05:45:30.143Z,74.70
2023-03-01T05:47:58.186Z,74.70
2023-03-01T05:50:28.330Z,74.70
2023-03-01T05:53:01.052Z,74.80
2023-03-01T05:55:30.154Z,74.80
2023-03-01T05:58:00.777Z,74.70
2023-03-01T06:00:31.802Z,74.70
2023-03-01T06:03:00.759Z,74.60
2023-03-01T06:05:29.619Z,74.80
2023-03-01T06:08:00.827Z,74.80
2023-03-01T06:10:28.982Z,74.60
2023-03-01T06:12:57.090Z,74.70
2023-03-01T06:15:25.271Z,74.60
2023-03-01T06:17:59.942Z,74.50
2023-03-01T06:20:30.582Z,74.50
2023-03-01T06:22:58.885Z,74.40
2023-03-01T06:25:28.694Z,74.50
2023-03-01T06:27:57.128Z,74.40
2023-03-01T06:30:26.763Z,74.40
2023-03-01T06:33:02.305Z,74.40
2023-03-01T06:35:32.141Z,74.20
2023-03-01T06:38:02.166Z,74.20
2023-03-01T06:40:30.353Z,74.20
2023-03-01T06:42:58.767Z,74.20
2023-03-01T06:45:26.804Z,74.10
2023-03-01T06:48:04.429Z,74.00
2023-03-01T06:50:32.888Z,73.90
2023-03-01T06:53:01.392Z,74.00
2023-03-01T06:55:29.449Z,73.90
2023-03-01T06:57:58.110Z,73.90
2023-03-01T07:00:26.944Z,73.80
2023-03-01T07:02:56.761Z,73.70
2023-03-01T07:05:24.770Z,73.90
2023-03-01T07:07:52.810Z,73.90
2023-03-01T07:10:20.981Z,73.90
2023-03-01T07:12:48.996Z,73.60
2023-03-01T07:15:17.168Z,73.50
2023-03-01T07:17:45.615Z,73.50
2023-03-01T07:20:16.174Z,73.60
2023-03-01T07:22:44.341Z,73.70
2023-03-01T07:25:13.159Z,73.50
2023-03-01T07:27:41.440Z,73.40
2023-03-01T07:30:10.728Z,73.30
2023-03-01T07:32:39.039Z,73.20
2023-03-01T07:35:08.139Z,74.10
2023-03-01T07:37:37.490Z,75.70
2023-03-01T07:40:06.465Z,74.30
2023-03-01T07:42:34.433Z,73.30
2023-03-01T07:45:02.375Z,73.20
2023-03-01T07:47:30.418Z,73.00
2023-03-01T07:49:58.441Z,73.00
2023-03-01T07:52:29.400Z,72.90
2023-03-01T07:54:58.875Z,73.00
2023-03-01T07:57:27.025Z,74.40
2023-03-01T07:59:55.016Z,73.50
2023-03-01T08:02:23.057Z,73.00
2023-03-01T08:04:51.144Z,72.70
2023-03-01T08:07:21.481Z,72.60
2023-03-01T08:09:49.569Z,72.40
2023-03-01T08:12:18.964Z,72.40
2023-03-01T08:14:47.018Z,72.20
2023-03-01T08:17:15.923Z,72.00
2023-03-01T08:19:45.743Z,72.10
2023-03-01T08:22:14.046Z,72.10
2023-03-01T08:24:42.037Z,71.60
2023-03-01T08:27:10.085Z,71.80
2023-03-01T08:29:39.545Z,71.70
2023-03-01T08:32:07.604Z,71.40
2023-03-01T08:34:36.628Z,71.30
2023-03-01T08:37:04.732Z,71.20
2023-03-01T08:39:32.969Z,71.30
2023-03-01T08:42:01.011Z,70.80
2023-03-01T08:44:29.032Z,70.60
2023-03-01T08:46:58.642Z,70.50
2023-03-01T08:49:26.643Z,70.30
2023-03-01T08:51:55.317Z,70.40
2023-03-01T08:54:24.132Z,70.60
2023-03-01T08:56:54.359Z,70.40
2023-03-01T08:59:22.331Z,70.00
2023-03-01T09:01:50.297Z,69.40
2023-03-01T09:04:19.665Z,69.30
2023-03-01T09:06:47.677Z,69.40
2023-03-01T09:09:17.809Z,69.40
2023-03-01T09:11:47.045Z,69.20
2023-03-01T09:14:15.534Z,68.70
2023-03-01T09:16:43.789Z,68.60
2023-03-01T09:19:12.121Z,68.70
2023-03-01T09:21:41.798Z,68.80
2023-03-01T09:24:15.047Z,68.90
2023-03-01T09:26:43.186Z,69.00
2023-03-01T09:29:11.484Z,68.40
2023-03-01T09:31:39.844Z,67.90
2023-03-01T09:34:08.629Z,68.10
2023-03-01T09:36:37.449Z,68.30
2023-03-01T09:39:07.845Z,68.10
2023-03-01T09:41:58.358Z,68.00
2023-03-01T09:44:33.434Z,67.80
2023-03-01T09:47:03.090Z,67.70
2023-03-01T09:49:33.664Z,67.50
2023-03-01T09:52:06.520Z,67.60
2023-03-01T09:54:38.002Z,67.60
2023-03-01T09:57:20.859Z,67.30
2023-03-01T10:00:05.374Z,67.40
2023-03-01T10:02:40.379Z,67.20
2023-03-01T10:05:44.206Z,67.10
2023-03-01T10:08:30.401Z,67.10
2023-03-01T10:11:00.411Z,66.80
2023-03-01T10:13:35.337Z,66.60
2023-03-01T10:16:11.559Z,66.80
2023-03-01T10:18:41.955Z,66.50
2023-03-01T10:21:17.564Z,66.70
2023-03-01T10:23:46.062Z,66.80
2023-03-01T10:26:40.987Z,66.80
2023-03-01T10:29:10.442Z,66.80
2023-03-01T10:31:44.956Z,66.70
2023-03-01T10:34:15.625Z,66.60
2023-03-01T10:36:45.352Z,66.30
2023-03-01T10:39:17.883Z,66.40
2023-03-01T10:42:00.652Z,66.10
2023-03-01T10:44:47.856Z,66.10
2023-03-01T10:47:24.373Z,66.30
2023-03-01T10:49:58.297Z,66.40
2023-03-01T10:52:29.540Z,66.20
2023-03-01T10:55:00.051Z,65.70
2023-03-01T10:57:42.840Z,65.70
2023-03-01T11:00:27.476Z,65.70
2023-03-01T11:03:14.006Z,65.70
2023-03-01T11:05:54.903Z,65.60
2023-03-01T11:08:43.607Z,65.30
2023-03-01T11:11:25.740Z,65.30
2023-03-01T11:13:58.322Z,65.50
2023-03-01T11:16:28.938Z,65.30
2023-03-01T11:19:03.232Z,65.40
2023-03-01T11:21:34.497Z,64.60
2023-03-01T11:24:03.829Z,64.60
2023-03-01T11:26:36.606Z,64.60
2023-03-01T11:29:12.128Z,64.60
2023-03-01T11:31:55.601Z,64.60
2023-03-01T11:34:36.994Z,64.50
2023-03-01T11:37:12.323Z,64.60
2023-03-01T11:39:43.608Z,64.10
2023-03-01T11:42:19.408Z,64.10
2023-03-01T11:44:52.657Z,64.20
2023-03-01T11:47:40.598Z,64.40
2023-03-01T11:50:21.571Z,64.40
2023-03-01T11:53:00.070Z,64.40
2023-03-01T11:55:42.993Z,64.50
2023-03-01T11:58:22.769Z,64.60
2023-03-01T12:01:18.367Z,64.30
2023-03-01T12:04:17.965Z,64.50
2023-03-01T12:06:57.871Z,64.40
2023-03-01T12:09:39.353Z,64.70
2023-03-01T12:12:31.570Z,64.90
2023-03-01T12:15:40.090Z,65.10
2023-03-01T12:18:42.735Z,64.90
2023-03-01T12:21:21.777Z,64.90
2023-03-01T12:24:17.311Z,64.80
2023-03-01T12:26:56.642Z,64.60
2023-03-01T12:29:28.038Z,64.50
2023-03-01T12:32:26.120Z,65.00
2023-03-01T12:35:21.798Z,64.40
2023-03-01T12:37:57.172Z,64.50
2023-03-01T12:41:01.491Z,64.20
2023-03-01T12:43:41.355Z,64.10
2023-03-01T12:46:20.127Z,64.00
2023-03-01T12:48:56.143Z,63.70
2023-03-01T12:51:30.038Z,63.80
2023-03-01T12:54:00.675Z,63.40
2023-03-01T12:56:32.513Z,63.10
2023-03-01T12:59:11.043Z,63.40
2023-03-01T13:01:48.129Z,63.60
2023-03-01T13:04:55.847Z,63.30
2023-03-01T13:07:35.372Z,63.90
2023-03-01T13:10:26.936Z,64.10
2023-03-01T13:13:04.456Z,63.80
2023-03-01T13:15:37.645Z,64.10
2023-03-01T13:18:27.323Z,64.00
2023-03-01T13:20:58.268Z,63.60
2023-03-01T13:23:31.747Z,64.00
2023-03-01T13:26:09.647Z,64.10
2023-03-01T13:28:53.063Z,64.80
2023-03-01T13:32:01.400Z,64.80
2023-03-01T13:34:55.808Z,64.80
2023-03-01T13:37:31.499Z,64.70
2023-03-01T13:40:05.924Z,64.60
2023-03-01T13:42:39.188Z,64.80
2023-03-01T13:45:27.977Z,64.80
2023-03-01T13:48:00.296Z,64.50
2023-03-01T13:50:30.601Z,64.50
2023-03-01T13:53:01.284Z,64.40
2023-03-01T13:55:38.550Z,64.10
2023-03-01T13:58:21.796Z,64.10
2023-03-01T14:00:49.937Z,63.70
2023-03-01T14:03:19.849Z,63.50
2023-03-01T14:06:13.229Z,64.10
2023-03-01T14:08:42.974Z,63.50
2023-03-01T14:11:40.762Z,62.70
2023-03-01T14:14:40.639Z,63.40
2023-03-01T14:17:32.555Z,63.00
2023-03-01T14:20:03.155Z,63.00
2023-03-01T14:22:35.091Z,62.60
2023-03-01T14:25:05.279Z,62.60
2023-03-01T14:27:40.436Z,62.20
2023-03-01T14:30:18.118Z,62.10
2023-03-01T14:32:54.830Z,61.90
2023-03-01T14:35:25.013Z,61.60
2023-03-01T14:37:53.228Z,61.30
2023-03-01T14:40:28.069Z,61.20
2023-03-01T14:42:58.264Z,61.70
2023-03-01T14:45:31.367Z,61.30
2023-03-01T14:48:03.752Z,61.10
2023-03-01T14:50:33.457Z,61.00
2023-03-01T14:53:03.917Z,61.20
2023-03-01T14:55:35.744Z,60.90
2023-03-01T14:58:06.996Z,61.00
2023-03-01T15:00:37.230Z,60.70
2023-03-01T15:03:14.420Z,60.60
2023-03-01T15:05:45.133Z,60.70
2023-03-01T15:08:20.004Z,61.60
2023-03-01T15:11:00.630Z,60.40
2023-03-01T15:13:32.482Z,60.60
2023-03-01T15:16:11.331Z,60.20
2023-03-01T15:18:45.597Z,60.70
2023-03-01T15:21:19.673Z,59.90
2023-03-01T15:23:54.240Z,59.90
2023-03-01T15:26:31.767Z,60.00
2023-03-01T15:29:01.548Z,60.20
2023-03-01T15:31:36.134Z,60.30
2023-03-01T15:34:12.779Z,60.20
2023-03-01T15:36:45.811Z,60.10
2023-03-01T15:39:38.411Z,60.20
2023-03-01T15:42:09.378Z,60.70
2023-03-01T15:44:43.845Z,59.80
2023-03-01T15:47:28.809Z,59.50
2023-03-01T15:49:57.699Z,59.70
2023-03-01T15:52:30.108Z,60.00
2023-03-01T15:55:00.286Z,60.00
2023-03-01T15:57:28.357Z,59.90
2023-03-01T15:59:56.693Z,59.90
2023-03-01T16:02:26.712Z,59.70
2023-03-01T16:04:57.317Z,59.70
2023-03-01T16:07:27.776Z,59.80
2023-03-01T16:09:55.966Z,60.00
2023-03-01T16:12:25.075Z,59.80
2023-03-01T16:14:54.027Z,59.80
2023-03-01T16:17:22.124Z,59.70
2023-03-01T16:19:51.857Z,59.30
2023-03-01T16:22:25.833Z,59.20
2023-03-01T16:24:54.076Z,59.30
2023-03-01T16:27:22.477Z,59.20
2023-03-01T16:29:50.647Z,59.20
2023-03-01T16:32:18.683Z,59.20
2023-03-01T16:34:50.083Z,59.10
2023-03-01T16:37:20.299Z,59.20
2023-03-01T16:39:49.798Z,59.10
2023-03-01T16:42:18.191Z,59.20
2023-03-01T16:44:46.167Z,59.10
2023-03-01T16:47:14.156Z,59.20
2023-03-01T16:49:42.237Z,59.40
2023-03-01T16:52:10.262Z,59.50
2023-03-01T16:54:42.837Z,59.70
2023-03-01T16:57:11.457Z,59.70
2023-03-01T16:59:39.577Z,59.70
2023-03-01T17:02:10.707Z,59.80
2023-03-01T17:04:38.875Z,59.90
2023-03-01T17:07:06.894Z,60.10
2023-03-01T17:09:37.087Z,60.00
2023-03-01T17:12:07.214Z,60.10
2023-03-01T17:14:35.295Z,60.30
2023-03-01T17:17:03.585Z,60.30
2023-03-01T17:19:32.722Z,60.10
2023-03-01T17:22:01.113Z,60.10
2023-03-01T17:24:30.014Z,60.20
2023-03-01T17:26:58.052Z,60.30
2023-03-01T17:29:27.583Z,60.40
2023-03-01T17:31:56.612Z,60.50
2023-03-01T17:34:25.290Z,60.60
2023-03-01T17:36:54.252Z,60.80
2023-03-01T17:39:25.811Z,60.80
2023-03-01T17:41:53.891Z,61.10
2023-03-01T17:44:22.570Z,61.10
2023-03-01T17:46:51.945Z,61.20
2023-03-01T17:49:20.005Z,61.30
2023-03-01T17:51:47.954Z,61.40
2023-03-01T17:54:15.957Z,61.40
2023-03-01T17:56:43.909Z,61.50
2023-03-01T17:59:11.963Z,61.70
2023-03-01T18:01:42.702Z,61.70
2023-03-01T18:04:12.377Z,61.90
2023-03-01T18:06:41.684Z,61.90
2023-03-01T18:09:12.989Z,61.90
2023-03-01T18:11:42.006Z,62.10
2023-03-01T18:14:10.117Z,62.10
2023-03-01T18:16:39.815Z,62.10
2023-03-01T18:19:07.982Z,62.10
2023-03-01T18:21:37.251Z,62.20
2023-03-01T18:24:05.451Z,62.00
2023-03-01T18:26:33.991Z,62.00
2023-03-01T18:29:04.461Z,61.90
2023-03-01T18:31:33.606Z,62.00
2023-03-01T18:34:01.994Z,61.90
2023-03-01T18:36:31.865Z,61.90
2023-03-01T18:39:03.202Z,61.80
2023-03-01T18:41:32.795Z,61.80
2023-03-01T18:44:02.291Z,61.70
2023-03-01T18:46:30.865Z,61.70
2023-03-01T18:48:59.084Z,61.60
2023-03-01T18:51:29.038Z,61.80
2023-03-01T18:53:58.501Z,61.80
2023-03-01T18:56:29.892Z,61.90
2023-03-01T18:58:59.381Z,61.80
2023-03-01T19:01:29.776Z,61.80
2023-03-01T19:03:58.742Z,61.80
2023-03-01T19:06:31.827Z,61.70
2023-03-01T19:09:00.873Z,61.80
2023-03-01T19:11:33.225Z,61.80
2023-03-01T19:14:02.424Z,61.80
2023-03-01T19:16:32.515Z,61.80
2023-03-01T19:19:02.316Z,61.90
2023-03-01T19:21:32.426Z,61.90
2023-03-01T19:24:02.389Z,61.90
2023-03-01T19:26:33.200Z,62.10
2023-03-01T19:29:01.532Z,62.20
2023-03-01T19:31:30.974Z,62.40
2023-03-01T19:34:10.509Z,62.50
2023-03-01T19:36:41.701Z,62.60
2023-03-01T19:39:11.232Z,62.60
2023-03-01T19:41:41.146Z,62.80
2023-03-01T19:44:11.093Z,62.90
2023-03-01T19:46:39.566Z,63.10
2023-03-01T19:49:07.696Z,63.20
2023-03-01T19:51:36.738Z,63.30
2023-03-01T19:54:05.557Z,63.40
2023-03-01T19:56:34.484Z,63.50
2023-03-01T19:59:04.672Z,63.70
2023-03-01T20:01:34.658Z,63.80
2023-03-01T20:04:03.224Z,63.90
2023-03-01T20:06:32.098Z,64.00
2023-03-01T20:09:04.215Z,64.00
2023-03-01T20:11:37.249Z,64.10
2023-03-01T20:14:06.643Z,64.20
2023-03-01T20:16:35.107Z,64.30
2023-03-01T20:19:03.801Z,64.50
2023-03-01T20:21:33.325Z,64.50
2023-03-01T20:24:01.506Z,64.60
2023-03-01T20:26:29.801Z,64.80
2023-03-01T20:28:58.262Z,64.90
2023-03-01T20:31:29.753Z,65.00
2023-03-01T20:33:59.024Z,65.00
2023-03-01T20:36:28.059Z,65.10
2023-03-01T20:38:56.645Z,65.20
2023-03-01T20:41:26.413Z,65.30
2023-03-01T20:43:59.358Z,65.40
2023-03-01T20:46:32.535Z,65.60
2023-03-01T20:49:01.420Z,65.60
2023-03-01T20:51:29.896Z,65.80
2023-03-01T20:53:58.104Z,65.70
2023-03-01T20:56:26.782Z,65.80
2023-03-01T20:59:04.357Z,65.80
2023-03-01T21:01:34.262Z,65.90
2023-03-01T21:04:02.562Z,65.90
2023-03-01T21:06:30.900Z,65.90
2023-03-01T21:08:59.386Z,66.00
2023-03-01T21:11:27.443Z,66.10
2023-03-01T21:13:56.485Z,66.10
2023-03-01T21:16:25.422Z,66.10
2023-03-01T21:18:55.890Z,66.20
2023-03-01T21:21:30.323Z,66.30
2023-03-01T21:23:58.483Z,66.30
2023-03-01T21:26:28.483Z,66.40
2023-03-01T21:28:58.825Z,66.40
2023-03-01T21:31:31.851Z,66.40
2023-03-01T21:34:04.179Z,66.50
2023-03-01T21:36:33.403Z,66.50
2023-03-01T21:39:02.548Z,66.50
2023-03-01T21:41:33.636Z,66.50
2023-03-01T21:44:03.285Z,66.60
2023-03-01T21:46:33.534Z,66.60
2023-03-01T21:49:04.669Z,66.60
2023-03-01T21:51:33.454Z,66.70
2023-03-01T21:54:02.020Z,66.80
2023-03-01T21:56:34.236Z,66.90
2023-03-01T21:59:03.415Z,66.90
2023-03-01T22:01:33.343Z,67.00
2023-03-01T22:04:03.602Z,67.10
2023-03-01T22:06:35.112Z,67.20
2023-03-01T22:09:06.770Z,67.20
2023-03-01T22:11:36.137Z,67.40
2023-03-01T22:14:05.088Z,67.60
2023-03-01T22:16:35.096Z,67.50
2023-03-01T22:19:05.641Z,67.40
2023-03-01T22:21:33.963Z,67.50
2023-03-01T22:24:03.999Z,67.50
2023-03-01T22:26:34.521Z,67.50
2023-03-01T22:29:04.868Z,67.40
2023-03-01T22:31:32.984Z,67.40
2023-03-01T22:34:01.441Z,67.40
2023-03-01T22:36:31.772Z,67.30
2023-03-01T22:39:01.716Z,67.40
2023-03-01T22:41:30.898Z,67.40
2023-03-01T22:43:58.947Z,67.30
2023-03-01T22:46:28.492Z,67.40
2023-03-01T22:48:57.174Z,67.40
2023-03-01T22:51:27.227Z,67.40
2023-03-01T22:53:57.235Z,67.40
2023-03-01T22:56:28.876Z,67.50
2023-03-01T22:58:58.263Z,67.50
2023-03-01T23:01:27.564Z,67.60
2023-03-01T23:03:56.179Z,67.50
2023-03-01T23:06:25.448Z,67.50
2023-03-01T23:08:55.075Z,67.40
2023-03-01T23:11:26.316Z,67.50
2023-03-01T23:13:55.418Z,67.50
2023-03-01T23:16:26.277Z,67.60
2023-03-01T23:18:55.486Z,67.60
2023-03-01T23:21:23.932Z,67.50
2023-03-01T23:23:52.720Z,67.70
2023-03-01T23:26:22.186Z,67.70
2023-03-01T23:28:52.205Z,67.70
2023-03-01T23:31:20.723Z,67.70
2023-03-01T23:33:49.591Z,67.50
2023-03-01T23:36:19.707Z,67.50
2023-03-01T23:38:48.138Z,67.50
2023-03-01T23:41:18.424Z,67.60
2023-03-01T23:43:47.026Z,67.50
2023-03-01T23:46:17.806Z,67.60
2023-03-01T23:48:46.740Z,67.60
2023-03-01T23:51:17.608Z,67.70
2023-03-01T23:53:54.355Z,67.80
2023-03-01T23:56:26.599Z,67.80
2023-03-01T23:58:55.164Z,67.70
